sensor_id;sensor_type;location;lat;lon;timestamp;P1;durP1;ratioP1;P2;durP2;ratioP2
50128;SDS011;36026;45.478;9.224;2022-10-16T00:00:20;59.10;;;37.88;;
50128;SDS011;36026;45.478;9.224;2022-10-16T00:03:21;59.15;;;39.20;;
50128;SDS011;36026;45.478;9.224;2022-10-16T00:06:23;57.15;;;39.47;;
50128;SDS011;36026;45.478;9.224;2022-10-16T00:09:25;60.75;;;39.75;;
50128;SDS011;36026;45.478;9.224;2022-10-16T00:12:27;64.53;;;38.47;;
50128;SDS011;36026;45.478;9.224;2022-10-16T00:15:30;58.25;;;37.03;;
50128;SDS011;36026;45.478;9.224;2022-10-16T00:18:31;59.15;;;37.30;;
50128;SDS011;36026;45.478;9.224;2022-10-16T00:21:33;55.85;;;35.53;;
50128;SDS011;36026;45.478;9.224;2022-10-16T00:24:36;57.03;;;37.85;;
50128;SDS011;36026;45.478;9.224;2022-10-16T00:27:37;58.50;;;37.28;;
50128;SDS011;36026;45.478;9.224;2022-10-16T00:30:40;54.42;;;37.35;;
50128;SDS011;36026;45.478;9.224;2022-10-16T00:33:42;51.97;;;35.58;;
50128;SDS011;36026;45.478;9.224;2022-10-16T00:36:44;59.78;;;36.95;;
50128;SDS011;36026;45.478;9.224;2022-10-16T00:39:46;53.05;;;36.85;;
50128;SDS011;36026;45.478;9.224;2022-10-16T00:42:47;53.10;;;36.63;;
50128;SDS011;36026;45.478;9.224;2022-10-16T00:45:50;54.55;;;36.30;;
50128;SDS011;36026;45.478;9.224;2022-10-16T00:48:53;49.22;;;33.40;;
50128;SDS011;36026;45.478;9.224;2022-10-16T00:51:57;56.03;;;36.28;;
50128;SDS011;36026;45.478;9.224;2022-10-16T00:54:58;55.85;;;36.30;;
50128;SDS011;36026;45.478;9.224;2022-10-16T00:58:01;57.10;;;36.35;;
50128;SDS011;36026;45.478;9.224;2022-10-16T01:01:04;52.30;;;36.00;;
50128;SDS011;36026;45.478;9.224;2022-10-16T01:04:06;55.03;;;36.08;;
50128;SDS011;36026;45.478;9.224;2022-10-16T01:07:09;53.83;;;36.72;;
50128;SDS011;36026;45.478;9.224;2022-10-16T01:10:17;52.92;;;34.83;;
50128;SDS011;36026;45.478;9.224;2022-10-16T01:13:27;52.15;;;34.85;;
50128;SDS011;36026;45.478;9.224;2022-10-16T01:16:37;54.50;;;35.58;;
50128;SDS011;36026;45.478;9.224;2022-10-16T01:19:44;51.85;;;34.58;;
50128;SDS011;36026;45.478;9.224;2022-10-16T01:23:03;54.30;;;35.28;;
50128;SDS011;36026;45.478;9.224;2022-10-16T01:26:19;53.28;;;35.10;;
50128;SDS011;36026;45.478;9.224;2022-10-16T01:29:27;52.92;;;35.25;;
50128;SDS011;36026;45.478;9.224;2022-10-16T01:32:31;56.55;;;37.38;;
50128;SDS011;36026;45.478;9.224;2022-10-16T01:35:36;57.75;;;37.38;;
50128;SDS011;36026;45.478;9.224;2022-10-16T01:38:40;49.83;;;34.70;;
50128;SDS011;36026;45.478;9.224;2022-10-16T01:41:44;59.20;;;39.47;;
50128;SDS011;36026;45.478;9.224;2022-10-16T01:44:49;52.03;;;36.05;;
50128;SDS011;36026;45.478;9.224;2022-10-16T01:47:51;54.15;;;35.58;;
50128;SDS011;36026;45.478;9.224;2022-10-16T01:50:55;57.17;;;37.33;;
50128;SDS011;36026;45.478;9.224;2022-10-16T01:53:59;57.33;;;36.20;;
50128;SDS011;36026;45.478;9.224;2022-10-16T01:57:01;55.13;;;37.28;;
50128;SDS011;36026;45.478;9.224;2022-10-16T02:00:08;56.28;;;36.30;;
50128;SDS011;36026;45.478;9.224;2022-10-16T02:03:12;52.88;;;35.00;;
50128;SDS011;36026;45.478;9.224;2022-10-16T02:09:17;52.75;;;34.40;;
50128;SDS011;36026;45.478;9.224;2022-10-16T02:12:19;50.38;;;35.50;;
50128;SDS011;36026;45.478;9.224;2022-10-16T02:15:25;53.33;;;36.67;;
50128;SDS011;36026;45.478;9.224;2022-10-16T02:18:26;55.10;;;36.15;;
50128;SDS011;36026;45.478;9.224;2022-10-16T02:21:29;51.37;;;34.70;;
50128;SDS011;36026;45.478;9.224;2022-10-16T02:24:37;51.85;;;35.40;;
50128;SDS011;36026;45.478;9.224;2022-10-16T02:27:43;53.58;;;36.25;;
50128;SDS011;36026;45.478;9.224;2022-10-16T02:30:51;51.58;;;35.53;;
50128;SDS011;36026;45.478;9.224;2022-10-16T02:33:55;48.97;;;34.13;;
50128;SDS011;36026;45.478;9.224;2022-10-16T02:36:59;51.72;;;34.42;;
50128;SDS011;36026;45.478;9.224;2022-10-16T02:40:03;49.85;;;34.55;;
50128;SDS011;36026;45.478;9.224;2022-10-16T02:46:10;54.50;;;34.78;;
50128;SDS011;36026;45.478;9.224;2022-10-16T02:49:11;49.30;;;33.65;;
50128;SDS011;36026;45.478;9.224;2022-10-16T02:52:13;51.13;;;34.35;;
50128;SDS011;36026;45.478;9.224;2022-10-16T02:55:14;49.45;;;33.90;;
50128;SDS011;36026;45.478;9.224;2022-10-16T02:58:16;50.05;;;34.00;;
50128;SDS011;36026;45.478;9.224;2022-10-16T03:01:19;50.08;;;33.50;;
50128;SDS011;36026;45.478;9.224;2022-10-16T03:04:20;48.75;;;33.13;;
50128;SDS011;36026;45.478;9.224;2022-10-16T03:07:22;42.28;;;30.55;;
50128;SDS011;36026;45.478;9.224;2022-10-16T03:10:24;47.70;;;32.15;;
50128;SDS011;36026;45.478;9.224;2022-10-16T03:13:25;49.15;;;33.58;;
50128;SDS011;36026;45.478;9.224;2022-10-16T03:16:28;48.30;;;32.03;;
50128;SDS011;36026;45.478;9.224;2022-10-16T03:19:30;43.22;;;31.50;;
50128;SDS011;36026;45.478;9.224;2022-10-16T03:22:32;45.75;;;31.52;;
50128;SDS011;36026;45.478;9.224;2022-10-16T03:25:33;49.50;;;33.03;;
50128;SDS011;36026;45.478;9.224;2022-10-16T03:28:35;44.72;;;31.73;;
50128;SDS011;36026;45.478;9.224;2022-10-16T03:31:38;47.13;;;31.70;;
50128;SDS011;36026;45.478;9.224;2022-10-16T03:34:40;46.85;;;32.03;;
50128;SDS011;36026;45.478;9.224;2022-10-16T03:37:41;46.90;;;31.55;;
50128;SDS011;36026;45.478;9.224;2022-10-16T03:40:43;44.65;;;31.92;;
50128;SDS011;36026;45.478;9.224;2022-10-16T03:43:44;45.85;;;31.77;;
50128;SDS011;36026;45.478;9.224;2022-10-16T03:46:47;43.75;;;31.42;;
50128;SDS011;36026;45.478;9.224;2022-10-16T03:49:49;46.50;;;32.67;;
50128;SDS011;36026;45.478;9.224;2022-10-16T03:52:50;41.47;;;30.10;;
50128;SDS011;36026;45.478;9.224;2022-10-16T03:55:52;46.72;;;30.40;;
50128;SDS011;36026;45.478;9.224;2022-10-16T03:58:54;46.92;;;31.67;;
50128;SDS011;36026;45.478;9.224;2022-10-16T04:01:57;41.22;;;29.65;;
50128;SDS011;36026;45.478;9.224;2022-10-16T04:04:58;44.78;;;30.90;;
50128;SDS011;36026;45.478;9.224;2022-10-16T04:08:00;45.85;;;31.77;;
50128;SDS011;36026;45.478;9.224;2022-10-16T04:11:01;44.95;;;30.73;;
50128;SDS011;36026;45.478;9.224;2022-10-16T04:14:03;44.35;;;31.17;;
50128;SDS011;36026;45.478;9.224;2022-10-16T04:17:06;45.13;;;31.63;;
50128;SDS011;36026;45.478;9.224;2022-10-16T04:20:08;48.80;;;31.92;;
50128;SDS011;36026;45.478;9.224;2022-10-16T04:23:10;48.53;;;31.75;;
50128;SDS011;36026;45.478;9.224;2022-10-16T04:26:12;44.10;;;31.83;;
50128;SDS011;36026;45.478;9.224;2022-10-16T04:29:13;45.47;;;30.83;;
50128;SDS011;36026;45.478;9.224;2022-10-16T04:32:16;43.70;;;31.40;;
50128;SDS011;36026;45.478;9.224;2022-10-16T04:35:18;44.87;;;32.07;;
50128;SDS011;36026;45.478;9.224;2022-10-16T04:38:20;44.63;;;31.63;;
50128;SDS011;36026;45.478;9.224;2022-10-16T04:41:22;48.35;;;33.75;;
50128;SDS011;36026;45.478;9.224;2022-10-16T04:44:23;49.88;;;34.15;;
50128;SDS011;36026;45.478;9.224;2022-10-16T04:47:26;48.85;;;33.60;;
50128;SDS011;36026;45.478;9.224;2022-10-16T04:50:28;47.08;;;31.30;;
50128;SDS011;36026;45.478;9.224;2022-10-16T04:53:29;46.28;;;32.75;;
50128;SDS011;36026;45.478;9.224;2022-10-16T04:56:31;50.05;;;33.75;;
50128;SDS011;36026;45.478;9.224;2022-10-16T04:59:33;47.13;;;32.08;;
50128;SDS011;36026;45.478;9.224;2022-10-16T05:02:35;46.22;;;30.95;;
50128;SDS011;36026;45.478;9.224;2022-10-16T05:05:41;49.25;;;33.33;;
50128;SDS011;36026;45.478;9.224;2022-10-16T05:08:43;51.42;;;33.90;;
50128;SDS011;36026;45.478;9.224;2022-10-16T05:11:45;46.85;;;33.15;;
50128;SDS011;36026;45.478;9.224;2022-10-16T05:14:47;47.30;;;31.23;;
50128;SDS011;36026;45.478;9.224;2022-10-16T05:17:51;47.83;;;31.13;;
50128;SDS011;36026;45.478;9.224;2022-10-16T05:20:53;45.35;;;30.58;;
50128;SDS011;36026;45.478;9.224;2022-10-16T05:23:55;46.22;;;32.17;;
50128;SDS011;36026;45.478;9.224;2022-10-16T05:26:56;46.40;;;30.90;;
50128;SDS011;36026;45.478;9.224;2022-10-16T05:29:58;41.00;;;29.83;;
50128;SDS011;36026;45.478;9.224;2022-10-16T05:33:01;44.88;;;30.75;;
50128;SDS011;36026;45.478;9.224;2022-10-16T05:36:03;49.15;;;33.15;;
50128;SDS011;36026;45.478;9.224;2022-10-16T05:39:06;50.33;;;33.80;;
50128;SDS011;36026;45.478;9.224;2022-10-16T05:42:07;46.80;;;32.30;;
50128;SDS011;36026;45.478;9.224;2022-10-16T05:45:09;48.13;;;33.30;;
50128;SDS011;36026;45.478;9.224;2022-10-16T05:48:13;49.23;;;32.33;;
50128;SDS011;36026;45.478;9.224;2022-10-16T05:51:15;43.43;;;30.17;;
50128;SDS011;36026;45.478;9.224;2022-10-16T05:54:16;44.25;;;30.20;;
50128;SDS011;36026;45.478;9.224;2022-10-16T05:57:18;44.42;;;30.85;;
50128;SDS011;36026;45.478;9.224;2022-10-16T06:00:19;43.75;;;28.48;;
50128;SDS011;36026;45.478;9.224;2022-10-16T06:03:22;42.67;;;31.40;;
50128;SDS011;36026;45.478;9.224;2022-10-16T06:06:25;44.45;;;29.58;;
50128;SDS011;36026;45.478;9.224;2022-10-16T06:09:27;42.42;;;29.65;;
50128;SDS011;36026;45.478;9.224;2022-10-16T06:12:29;40.70;;;29.45;;
50128;SDS011;36026;45.478;9.224;2022-10-16T06:15:30;44.30;;;28.60;;
50128;SDS011;36026;45.478;9.224;2022-10-16T06:18:33;42.83;;;30.00;;
50128;SDS011;36026;45.478;9.224;2022-10-16T06:21:35;43.43;;;30.17;;
50128;SDS011;36026;45.478;9.224;2022-10-16T06:24:37;42.03;;;29.75;;
50128;SDS011;36026;45.478;9.224;2022-10-16T06:27:39;43.08;;;28.80;;
50128;SDS011;36026;45.478;9.224;2022-10-16T06:30:40;39.67;;;27.77;;
50128;SDS011;36026;45.478;9.224;2022-10-16T06:33:45;41.83;;;28.50;;
50128;SDS011;36026;45.478;9.224;2022-10-16T06:36:46;44.67;;;31.00;;
50128;SDS011;36026;45.478;9.224;2022-10-16T06:39:48;43.20;;;29.17;;
50128;SDS011;36026;45.478;9.224;2022-10-16T06:45:56;40.10;;;27.57;;
50128;SDS011;36026;45.478;9.224;2022-10-16T06:48:59;38.95;;;26.58;;
50128;SDS011;36026;45.478;9.224;2022-10-16T06:52:01;39.60;;;28.05;;
50128;SDS011;36026;45.478;9.224;2022-10-16T06:55:03;43.40;;;28.48;;
50128;SDS011;36026;45.478;9.224;2022-10-16T06:58:05;40.70;;;28.20;;
50128;SDS011;36026;45.478;9.224;2022-10-16T07:01:07;43.03;;;29.20;;
50128;SDS011;36026;45.478;9.224;2022-10-16T07:04:10;39.78;;;28.20;;
50128;SDS011;36026;45.478;9.224;2022-10-16T07:07:12;41.63;;;27.77;;
50128;SDS011;36026;45.478;9.224;2022-10-16T07:10:14;42.92;;;29.65;;
50128;SDS011;36026;45.478;9.224;2022-10-16T07:13:15;36.92;;;25.75;;
50128;SDS011;36026;45.478;9.224;2022-10-16T07:16:18;39.58;;;27.85;;
50128;SDS011;36026;45.478;9.224;2022-10-16T07:19:22;40.13;;;27.10;;
50128;SDS011;36026;45.478;9.224;2022-10-16T07:22:25;39.30;;;28.45;;
50128;SDS011;36026;45.478;9.224;2022-10-16T07:25:26;40.38;;;28.98;;
50128;SDS011;36026;45.478;9.224;2022-10-16T07:28:28;44.58;;;29.95;;
50128;SDS011;36026;45.478;9.224;2022-10-16T07:31:31;43.42;;;28.73;;
50128;SDS011;36026;45.478;9.224;2022-10-16T07:34:34;39.85;;;28.08;;
50128;SDS011;36026;45.478;9.224;2022-10-16T07:37:36;39.53;;;28.23;;
50128;SDS011;36026;45.478;9.224;2022-10-16T07:40:37;38.45;;;27.10;;
50128;SDS011;36026;45.478;9.224;2022-10-16T07:43:39;37.88;;;25.63;;
50128;SDS011;36026;45.478;9.224;2022-10-16T07:46:41;36.17;;;24.77;;
50128;SDS011;36026;45.478;9.224;2022-10-16T07:49:44;33.72;;;25.30;;
50128;SDS011;36026;45.478;9.224;2022-10-16T07:52:45;35.38;;;24.05;;
50128;SDS011;36026;45.478;9.224;2022-10-16T07:55:47;33.47;;;24.17;;
50128;SDS011;36026;45.478;9.224;2022-10-16T07:58:49;32.67;;;24.65;;
50128;SDS011;36026;45.478;9.224;2022-10-16T08:01:51;37.22;;;25.25;;
50128;SDS011;36026;45.478;9.224;2022-10-16T08:04:54;31.05;;;23.58;;
50128;SDS011;36026;45.478;9.224;2022-10-16T08:07:55;34.15;;;23.08;;
50128;SDS011;36026;45.478;9.224;2022-10-16T08:10:57;32.35;;;23.35;;
50128;SDS011;36026;45.478;9.224;2022-10-16T08:13:59;35.42;;;25.23;;
50128;SDS011;36026;45.478;9.224;2022-10-16T08:17:00;32.53;;;23.95;;
50128;SDS011;36026;45.478;9.224;2022-10-16T08:20:05;34.72;;;24.20;;
50128;SDS011;36026;45.478;9.224;2022-10-16T08:23:08;34.20;;;23.40;;
50128;SDS011;36026;45.478;9.224;2022-10-16T08:26:11;39.03;;;24.73;;
50128;SDS011;36026;45.478;9.224;2022-10-16T08:29:13;40.53;;;26.58;;
50128;SDS011;36026;45.478;9.224;2022-10-16T08:32:15;36.20;;;25.23;;
50128;SDS011;36026;45.478;9.224;2022-10-16T08:35:18;34.95;;;25.20;;
50128;SDS011;36026;45.478;9.224;2022-10-16T08:38:19;39.67;;;26.77;;
50128;SDS011;36026;45.478;9.224;2022-10-16T08:41:23;46.42;;;30.35;;
50128;SDS011;36026;45.478;9.224;2022-10-16T08:44:57;47.38;;;29.05;;
50128;SDS011;36026;45.478;9.224;2022-10-16T08:48:15;43.92;;;29.55;;
50128;SDS011;36026;45.478;9.224;2022-10-16T08:51:22;46.72;;;31.17;;
50128;SDS011;36026;45.478;9.224;2022-10-16T08:54:26;53.13;;;32.45;;
50128;SDS011;36026;45.478;9.224;2022-10-16T08:57:30;51.33;;;30.65;;
50128;SDS011;36026;45.478;9.224;2022-10-16T09:00:32;56.03;;;33.83;;
50128;SDS011;36026;45.478;9.224;2022-10-16T09:03:39;52.03;;;34.28;;
50128;SDS011;36026;45.478;9.224;2022-10-16T09:06:49;54.92;;;35.53;;
50128;SDS011;36026;45.478;9.224;2022-10-16T09:09:54;45.65;;;31.00;;
50128;SDS011;36026;45.478;9.224;2022-10-16T09:13:07;55.00;;;33.22;;
50128;SDS011;36026;45.478;9.224;2022-10-16T09:16:15;53.67;;;33.22;;
50128;SDS011;36026;45.478;9.224;2022-10-16T09:19:24;52.63;;;33.95;;
50128;SDS011;36026;45.478;9.224;2022-10-16T09:22:30;51.85;;;33.40;;
50128;SDS011;36026;45.478;9.224;2022-10-16T09:25:32;55.47;;;35.45;;
50128;SDS011;36026;45.478;9.224;2022-10-16T09:28:35;58.67;;;36.25;;
50128;SDS011;36026;45.478;9.224;2022-10-16T09:31:36;53.13;;;34.67;;
50128;SDS011;36026;45.478;9.224;2022-10-16T09:34:39;65.22;;;37.17;;
50128;SDS011;36026;45.478;9.224;2022-10-16T09:37:45;58.35;;;36.40;;
50128;SDS011;36026;45.478;9.224;2022-10-16T09:40:49;57.80;;;34.95;;
50128;SDS011;36026;45.478;9.224;2022-10-16T09:43:52;58.28;;;35.47;;
50128;SDS011;36026;45.478;9.224;2022-10-16T09:47:01;57.45;;;35.35;;
50128;SDS011;36026;45.478;9.224;2022-10-16T09:50:05;51.80;;;33.97;;
50128;SDS011;36026;45.478;9.224;2022-10-16T09:53:18;55.35;;;33.22;;
50128;SDS011;36026;45.478;9.224;2022-10-16T09:56:23;52.80;;;32.65;;
50128;SDS011;36026;45.478;9.224;2022-10-16T09:59:25;55.92;;;34.35;;
50128;SDS011;36026;45.478;9.224;2022-10-16T10:02:30;54.85;;;33.72;;
50128;SDS011;36026;45.478;9.224;2022-10-16T10:05:32;51.00;;;32.67;;
50128;SDS011;36026;45.478;9.224;2022-10-16T10:08:35;49.08;;;31.75;;
50128;SDS011;36026;45.478;9.224;2022-10-16T10:11:41;51.88;;;31.73;;
50128;SDS011;36026;45.478;9.224;2022-10-16T10:14:45;50.78;;;33.53;;
50128;SDS011;36026;45.478;9.224;2022-10-16T10:17:49;48.55;;;32.15;;
50128;SDS011;36026;45.478;9.224;2022-10-16T10:20:57;54.90;;;33.03;;
50128;SDS011;36026;45.478;9.224;2022-10-16T10:24:01;54.35;;;35.38;;
50128;SDS011;36026;45.478;9.224;2022-10-16T10:27:06;50.00;;;32.50;;
50128;SDS011;36026;45.478;9.224;2022-10-16T10:30:11;50.28;;;32.38;;
50128;SDS011;36026;45.478;9.224;2022-10-16T10:33:19;54.22;;;35.20;;
50128;SDS011;36026;45.478;9.224;2022-10-16T10:36:29;49.78;;;32.92;;
50128;SDS011;36026;45.478;9.224;2022-10-16T10:39:34;52.05;;;32.97;;
50128;SDS011;36026;45.478;9.224;2022-10-16T10:42:40;43.25;;;30.35;;
50128;SDS011;36026;45.478;9.224;2022-10-16T10:45:46;41.95;;;28.25;;
50128;SDS011;36026;45.478;9.224;2022-10-16T10:48:54;50.72;;;34.28;;
50128;SDS011;36026;45.478;9.224;2022-10-16T10:52:14;45.90;;;31.77;;
50128;SDS011;36026;45.478;9.224;2022-10-16T10:55:31;51.28;;;32.33;;
50128;SDS011;36026;45.478;9.224;2022-10-16T10:58:45;60.38;;;37.65;;
50128;SDS011;36026;45.478;9.224;2022-10-16T11:08:25;54.45;;;34.50;;
50128;SDS011;36026;45.478;9.224;2022-10-16T11:11:32;50.67;;;33.85;;
50128;SDS011;36026;45.478;9.224;2022-10-16T11:14:38;57.95;;;37.55;;
50128;SDS011;36026;45.478;9.224;2022-10-16T11:17:42;54.13;;;34.70;;
50128;SDS011;36026;45.478;9.224;2022-10-16T11:20:49;53.53;;;34.78;;
50128;SDS011;36026;45.478;9.224;2022-10-16T11:23:53;54.38;;;34.28;;
50128;SDS011;36026;45.478;9.224;2022-10-16T11:27:01;148.57;;;104.35;;
50128;SDS011;36026;45.478;9.224;2022-10-16T11:30:12;146.63;;;97.30;;
50128;SDS011;36026;45.478;9.224;2022-10-16T11:33:24;130.23;;;87.63;;
50128;SDS011;36026;45.478;9.224;2022-10-16T11:36:33;132.77;;;89.03;;
50128;SDS011;36026;45.478;9.224;2022-10-16T11:39:38;195.55;;;126.00;;
50128;SDS011;36026;45.478;9.224;2022-10-16T11:42:42;157.90;;;105.47;;
50128;SDS011;36026;45.478;9.224;2022-10-16T11:45:48;96.88;;;65.75;;
50128;SDS011;36026;45.478;9.224;2022-10-16T11:48:52;63.63;;;43.35;;
50128;SDS011;36026;45.478;9.224;2022-10-16T11:51:59;40.08;;;26.75;;
50128;SDS011;36026;45.478;9.224;2022-10-16T11:55:04;35.75;;;24.02;;
50128;SDS011;36026;45.478;9.224;2022-10-16T11:58:14;34.58;;;24.98;;
50128;SDS011;36026;45.478;9.224;2022-10-16T12:01:26;39.15;;;26.17;;
50128;SDS011;36026;45.478;9.224;2022-10-16T12:04:33;40.15;;;29.13;;
50128;SDS011;36026;45.478;9.224;2022-10-16T12:07:41;38.38;;;27.83;;
50128;SDS011;36026;45.478;9.224;2022-10-16T12:10:47;36.72;;;27.67;;
50128;SDS011;36026;45.478;9.224;2022-10-16T12:13:50;31.15;;;24.35;;
50128;SDS011;36026;45.478;9.224;2022-10-16T12:19:58;37.75;;;26.88;;
50128;SDS011;36026;45.478;9.224;2022-10-16T12:23:02;32.50;;;24.98;;
50128;SDS011;36026;45.478;9.224;2022-10-16T12:29:12;29.02;;;21.50;;
50128;SDS011;36026;45.478;9.224;2022-10-16T12:32:22;22.85;;;17.27;;
50128;SDS011;36026;45.478;9.224;2022-10-16T12:35:29;30.42;;;23.33;;
50128;SDS011;36026;45.478;9.224;2022-10-16T12:38:33;21.88;;;17.73;;
50128;SDS011;36026;45.478;9.224;2022-10-16T12:41:38;29.48;;;22.08;;
50128;SDS011;36026;45.478;9.224;2022-10-16T12:44:41;25.48;;;18.80;;
50128;SDS011;36026;45.478;9.224;2022-10-16T12:47:47;26.25;;;19.27;;
50128;SDS011;36026;45.478;9.224;2022-10-16T12:50:50;39.67;;;29.35;;
50128;SDS011;36026;45.478;9.224;2022-10-16T12:53:58;36.08;;;26.05;;
50128;SDS011;36026;45.478;9.224;2022-10-16T12:57:07;33.28;;;25.95;;
50128;SDS011;36026;45.478;9.224;2022-10-16T13:00:28;29.83;;;24.73;;
50128;SDS011;36026;45.478;9.224;2022-10-16T13:03:39;24.02;;;19.50;;
50128;SDS011;36026;45.478;9.224;2022-10-16T13:06:51;34.83;;;26.80;;
50128;SDS011;36026;45.478;9.224;2022-10-16T13:10:00;29.75;;;22.10;;
50128;SDS011;36026;45.478;9.224;2022-10-16T13:13:20;20.80;;;17.08;;
50128;SDS011;36026;45.478;9.224;2022-10-16T13:16:33;30.23;;;23.60;;
50128;SDS011;36026;45.478;9.224;2022-10-16T13:19:42;27.75;;;21.25;;
50128;SDS011;36026;45.478;9.224;2022-10-16T13:22:48;20.63;;;17.02;;
50128;SDS011;36026;45.478;9.224;2022-10-16T13:25:58;21.23;;;16.25;;
50128;SDS011;36026;45.478;9.224;2022-10-16T13:29:05;22.25;;;17.45;;
50128;SDS011;36026;45.478;9.224;2022-10-16T13:32:09;30.58;;;21.77;;
50128;SDS011;36026;45.478;9.224;2022-10-16T13:35:18;20.38;;;17.85;;
50128;SDS011;36026;45.478;9.224;2022-10-16T13:38:21;20.33;;;15.35;;
50128;SDS011;36026;45.478;9.224;2022-10-16T13:41:24;21.88;;;17.35;;
50128;SDS011;36026;45.478;9.224;2022-10-16T13:44:25;28.70;;;23.27;;
50128;SDS011;36026;45.478;9.224;2022-10-16T13:47:29;26.02;;;20.23;;
50128;SDS011;36026;45.478;9.224;2022-10-16T13:50:30;40.45;;;31.65;;
50128;SDS011;36026;45.478;9.224;2022-10-16T13:53:32;24.50;;;18.77;;
50128;SDS011;36026;45.478;9.224;2022-10-16T13:56:35;27.17;;;20.92;;
50128;SDS011;36026;45.478;9.224;2022-10-16T13:59:37;27.57;;;20.67;;
50128;SDS011;36026;45.478;9.224;2022-10-16T14:02:40;22.85;;;18.08;;
50128;SDS011;36026;45.478;9.224;2022-10-16T14:05:43;28.02;;;21.27;;
50128;SDS011;36026;45.478;9.224;2022-10-16T14:08:46;40.28;;;29.02;;
50128;SDS011;36026;45.478;9.224;2022-10-16T14:11:50;37.42;;;31.95;;
50128;SDS011;36026;45.478;9.224;2022-10-16T14:14:53;35.72;;;27.92;;
50128;SDS011;36026;45.478;9.224;2022-10-16T14:17:57;28.23;;;22.70;;
50128;SDS011;36026;45.478;9.224;2022-10-16T14:21:02;25.80;;;18.95;;
50128;SDS011;36026;45.478;9.224;2022-10-16T14:24:10;26.80;;;19.02;;
50128;SDS011;36026;45.478;9.224;2022-10-16T14:27:20;25.65;;;20.02;;
50128;SDS011;36026;45.478;9.224;2022-10-16T14:30:26;33.28;;;23.92;;
50128;SDS011;36026;45.478;9.224;2022-10-16T14:33:33;32.53;;;23.73;;
50128;SDS011;36026;45.478;9.224;2022-10-16T14:36:35;31.45;;;23.50;;
50128;SDS011;36026;45.478;9.224;2022-10-16T14:39:36;32.22;;;22.13;;
50128;SDS011;36026;45.478;9.224;2022-10-16T14:42:38;34.63;;;25.50;;
50128;SDS011;36026;45.478;9.224;2022-10-16T14:45:49;36.55;;;27.05;;
50128;SDS011;36026;45.478;9.224;2022-10-16T14:48:54;41.10;;;30.05;;
50128;SDS011;36026;45.478;9.224;2022-10-16T14:52:01;41.95;;;27.05;;
50128;SDS011;36026;45.478;9.224;2022-10-16T14:55:03;32.20;;;23.70;;
50128;SDS011;36026;45.478;9.224;2022-10-16T14:58:05;32.28;;;21.17;;
50128;SDS011;36026;45.478;9.224;2022-10-16T15:01:07;32.13;;;22.88;;
50128;SDS011;36026;45.478;9.224;2022-10-16T15:04:12;35.08;;;25.83;;
50128;SDS011;36026;45.478;9.224;2022-10-16T15:07:15;33.95;;;25.15;;
50128;SDS011;36026;45.478;9.224;2022-10-16T15:10:17;37.80;;;27.77;;
50128;SDS011;36026;45.478;9.224;2022-10-16T15:13:19;36.17;;;25.52;;
50128;SDS011;36026;45.478;9.224;2022-10-16T15:16:21;56.40;;;42.65;;
50128;SDS011;36026;45.478;9.224;2022-10-16T15:19:24;48.60;;;33.45;;
50128;SDS011;36026;45.478;9.224;2022-10-16T15:22:27;41.70;;;30.33;;
50128;SDS011;36026;45.478;9.224;2022-10-16T15:25:30;31.42;;;22.15;;
50128;SDS011;36026;45.478;9.224;2022-10-16T15:28:34;35.05;;;24.75;;
50128;SDS011;36026;45.478;9.224;2022-10-16T15:31:36;35.93;;;24.03;;
50128;SDS011;36026;45.478;9.224;2022-10-16T15:34:39;37.55;;;25.40;;
50128;SDS011;36026;45.478;9.224;2022-10-16T15:37:40;34.35;;;23.90;;
50128;SDS011;36026;45.478;9.224;2022-10-16T15:40:42;30.15;;;19.65;;
50128;SDS011;36026;45.478;9.224;2022-10-16T15:43:44;26.17;;;18.67;;
50128;SDS011;36026;45.478;9.224;2022-10-16T15:46:45;31.73;;;21.30;;
50128;SDS011;36026;45.478;9.224;2022-10-16T15:49:48;29.23;;;20.50;;
50128;SDS011;36026;45.478;9.224;2022-10-16T15:52:50;38.10;;;26.08;;
50128;SDS011;36026;45.478;9.224;2022-10-16T15:55:52;43.90;;;30.95;;
50128;SDS011;36026;45.478;9.224;2022-10-16T15:58:53;37.58;;;27.70;;
50128;SDS011;36026;45.478;9.224;2022-10-16T16:01:55;38.85;;;26.20;;
50128;SDS011;36026;45.478;9.224;2022-10-16T16:04:58;34.53;;;22.95;;
50128;SDS011;36026;45.478;9.224;2022-10-16T16:11:01;36.58;;;26.55;;
50128;SDS011;36026;45.478;9.224;2022-10-16T16:14:04;39.63;;;27.20;;
50128;SDS011;36026;45.478;9.224;2022-10-16T16:17:06;44.03;;;29.27;;
50128;SDS011;36026;45.478;9.224;2022-10-16T16:20:09;41.35;;;29.55;;
50128;SDS011;36026;45.478;9.224;2022-10-16T16:23:11;43.88;;;29.95;;
50128;SDS011;36026;45.478;9.224;2022-10-16T16:26:13;42.80;;;27.98;;
50128;SDS011;36026;45.478;9.224;2022-10-16T16:29:16;43.70;;;29.13;;
50128;SDS011;36026;45.478;9.224;2022-10-16T16:32:18;42.92;;;30.33;;
50128;SDS011;36026;45.478;9.224;2022-10-16T16:35:21;44.28;;;29.05;;
50128;SDS011;36026;45.478;9.224;2022-10-16T16:38:22;36.58;;;25.92;;
50128;SDS011;36026;45.478;9.224;2022-10-16T16:41:25;36.17;;;25.35;;
50128;SDS011;36026;45.478;9.224;2022-10-16T16:44:28;42.00;;;28.60;;
50128;SDS011;36026;45.478;9.224;2022-10-16T16:47:29;41.85;;;28.48;;
50128;SDS011;36026;45.478;9.224;2022-10-16T16:50:35;43.38;;;29.00;;
50128;SDS011;36026;45.478;9.224;2022-10-16T16:53:37;61.03;;;41.80;;
50128;SDS011;36026;45.478;9.224;2022-10-16T16:56:39;97.93;;;61.92;;
50128;SDS011;36026;45.478;9.224;2022-10-16T16:59:42;65.00;;;38.45;;
50128;SDS011;36026;45.478;9.224;2022-10-16T17:02:44;49.78;;;32.42;;
50128;SDS011;36026;45.478;9.224;2022-10-16T17:05:56;38.13;;;26.45;;
50128;SDS011;36026;45.478;9.224;2022-10-16T17:08:58;41.25;;;27.80;;
50128;SDS011;36026;45.478;9.224;2022-10-16T17:12:02;45.00;;;29.67;;
50128;SDS011;36026;45.478;9.224;2022-10-16T17:15:04;40.58;;;28.30;;
50128;SDS011;36026;45.478;9.224;2022-10-16T17:18:07;45.07;;;30.73;;
50128;SDS011;36026;45.478;9.224;2022-10-16T17:21:10;41.20;;;27.90;;
50128;SDS011;36026;45.478;9.224;2022-10-16T17:24:12;43.97;;;29.00;;
50128;SDS011;36026;45.478;9.224;2022-10-16T17:27:14;44.25;;;31.45;;
50128;SDS011;36026;45.478;9.224;2022-10-16T17:30:15;44.10;;;28.77;;
50128;SDS011;36026;45.478;9.224;2022-10-16T17:33:17;48.20;;;32.05;;
50128;SDS011;36026;45.478;9.224;2022-10-16T17:36:21;43.65;;;30.90;;
50128;SDS011;36026;45.478;9.224;2022-10-16T17:39:23;44.15;;;30.63;;
50128;SDS011;36026;45.478;9.224;2022-10-16T17:42:24;42.85;;;29.98;;
50128;SDS011;36026;45.478;9.224;2022-10-16T17:45:26;48.15;;;31.98;;
50128;SDS011;36026;45.478;9.224;2022-10-16T17:48:28;43.92;;;31.05;;
50128;SDS011;36026;45.478;9.224;2022-10-16T17:51:31;50.22;;;34.03;;
50128;SDS011;36026;45.478;9.224;2022-10-16T17:54:33;47.83;;;31.65;;
50128;SDS011;36026;45.478;9.224;2022-10-16T17:57:34;44.45;;;31.17;;
50128;SDS011;36026;45.478;9.224;2022-10-16T18:00:36;50.47;;;33.08;;
50128;SDS011;36026;45.478;9.224;2022-10-16T18:03:38;57.35;;;38.63;;
50128;SDS011;36026;45.478;9.224;2022-10-16T18:06:41;131.13;;;89.18;;
50128;SDS011;36026;45.478;9.224;2022-10-16T18:09:43;106.75;;;77.38;;
50128;SDS011;36026;45.478;9.224;2022-10-16T18:12:45;63.63;;;44.25;;
50128;SDS011;36026;45.478;9.224;2022-10-16T18:15:47;50.03;;;35.25;;
50128;SDS011;36026;45.478;9.224;2022-10-16T18:18:48;52.50;;;34.70;;